createdAt,value
2023-04-30T00:02:07.175Z,17.33
2023-04-30T00:04:24.905Z,17.20
2023-04-30T00:06:43.332Z,17.05
2023-04-30T00:09:01.049Z,17.83
2023-04-30T00:11:22.222Z,17.98
2023-04-30T00:13:39.512Z,17.90
2023-04-30T00:15:56.661Z,16.98
2023-04-30T00:18:13.922Z,16.60
2023-04-30T00:20:31.893Z,16.60
2023-04-30T00:22:50.173Z,15.57
2023-04-30T00:25:07.914Z,16.80
2023-04-30T00:27:26.340Z,16.13
2023-04-30T00:29:43.577Z,17.13
2023-04-30T00:32:01.252Z,17.98
2023-04-30T00:34:20.140Z,18.10
2023-04-30T00:36:37.473Z,17.13
2023-04-30T00:38:54.817Z,18.42
2023-04-30T00:41:11.749Z,17.73
2023-04-30T00:43:28.795Z,17.00
2023-04-30T00:45:46.212Z,17.27
2023-04-30T00:48:04.538Z,17.23
2023-04-30T00:50:21.855Z,18.00
2023-04-30T00:52:38.774Z,17.67
2023-04-30T00:54:57.149Z,18.70
2023-04-30T00:57:13.986Z,20.05
2023-04-30T00:59:31.280Z,19.83
2023-04-30T01:01:48.716Z,18.95
2023-04-30T01:04:06.692Z,19.25
2023-04-30T01:06:24.226Z,18.13
2023-04-30T01:08:43.010Z,18.00
2023-04-30T01:11:00.219Z,16.63
2023-04-30T01:13:17.563Z,17.25
2023-04-30T01:15:34.575Z,17.25
2023-04-30T01:17:51.973Z,16.92
2023-04-30T01:20:09.951Z,17.35
2023-04-30T01:22:27.269Z,17.25
2023-04-30T01:24:44.573Z,18.13
2023-04-30T01:27:01.846Z,18.75
2023-04-30T01:29:20.191Z,18.90
2023-04-30T01:31:37.148Z,17.90
2023-04-30T01:33:55.377Z,19.58
2023-04-30T01:36:12.298Z,17.88
2023-04-30T01:38:29.443Z,16.17
2023-04-30T01:40:46.777Z,17.00
2023-04-30T01:43:04.511Z,16.50
2023-04-30T01:45:22.122Z,15.90
2023-04-30T01:47:40.108Z,17.95
2023-04-30T01:49:57.514Z,17.70
2023-04-30T01:52:16.043Z,19.88
2023-04-30T01:54:33.569Z,17.83
2023-04-30T01:56:50.829Z,16.58
2023-04-30T01:59:08.198Z,17.60
2023-04-30T02:01:28.139Z,18.50
2023-04-30T02:03:45.075Z,17.75
2023-04-30T02:06:02.747Z,19.70
2023-04-30T02:08:20.454Z,17.85
2023-04-30T02:10:37.477Z,17.02
2023-04-30T02:12:55.127Z,16.63
2023-04-30T02:15:12.852Z,16.65
2023-04-30T02:17:33.600Z,15.85
2023-04-30T02:19:53.899Z,15.98
2023-04-30T02:22:11.024Z,17.50
2023-04-30T02:24:28.397Z,16.13
2023-04-30T02:26:48.633Z,17.80
2023-04-30T02:29:06.051Z,18.05
2023-04-30T02:31:23.385Z,17.15
2023-04-30T02:33:41.035Z,16.30
2023-04-30T02:35:59.741Z,16.38
2023-04-30T02:38:18.047Z,16.55
2023-04-30T02:43:10.083Z,16.60
2023-04-30T02:45:27.382Z,18.15
2023-04-30T02:47:44.303Z,17.95
2023-04-30T02:50:01.631Z,18.80
2023-04-30T02:52:19.011Z,17.38
2023-04-30T02:54:35.989Z,16.75
2023-04-30T02:56:52.919Z,16.60
2023-04-30T02:59:10.161Z,17.08
2023-04-30T03:01:27.569Z,17.58
2023-04-30T03:03:44.601Z,17.48
2023-04-30T03:06:02.984Z,17.13
2023-04-30T03:08:20.370Z,16.63
2023-04-30T03:10:37.828Z,16.33
2023-04-30T03:12:55.713Z,17.33
2023-04-30T03:15:12.948Z,17.27
2023-04-30T03:17:30.187Z,16.75
2023-04-30T03:19:47.600Z,18.17
2023-04-30T03:22:04.976Z,16.25
2023-04-30T03:24:22.269Z,16.42
2023-04-30T03:26:39.606Z,15.77
2023-04-30T03:28:56.961Z,15.55
2023-04-30T03:31:14.268Z,16.90
2023-04-30T03:33:32.163Z,18.33
2023-04-30T03:35:49.609Z,16.63
2023-04-30T03:38:06.955Z,16.92
2023-04-30T03:40:24.250Z,16.13
2023-04-30T03:42:41.616Z,16.23
2023-04-30T03:44:58.813Z,16.13
2023-04-30T03:47:15.877Z,15.63
2023-04-30T03:49:33.503Z,15.85
2023-04-30T03:51:51.468Z,16.58
2023-04-30T03:54:09.715Z,17.10
2023-04-30T03:56:27.064Z,16.77
2023-04-30T03:58:44.355Z,17.50
2023-04-30T04:01:01.324Z,16.80
2023-04-30T04:03:19.090Z,17.70
2023-04-30T04:05:36.441Z,15.52
2023-04-30T04:07:53.676Z,16.70
2023-04-30T04:10:10.984Z,16.40
2023-04-30T04:12:28.669Z,16.08
2023-04-30T04:14:45.986Z,16.83
2023-04-30T04:17:04.060Z,16.85
2023-04-30T04:19:21.506Z,16.88
2023-04-30T04:21:39.195Z,17.17
2023-04-30T04:23:56.263Z,15.73
2023-04-30T04:26:14.572Z,17.15
2023-04-30T04:28:32.429Z,16.98
2023-04-30T04:30:49.799Z,16.98
2023-04-30T04:33:07.200Z,17.80
2023-04-30T04:35:24.490Z,16.25
2023-04-30T04:37:41.758Z,16.13
2023-04-30T04:40:00.039Z,16.58
2023-04-30T04:42:25.239Z,16.77
2023-04-30T04:44:42.575Z,17.45
2023-04-30T04:46:59.893Z,17.02
2023-04-30T04:49:17.418Z,17.05
2023-04-30T04:51:34.374Z,16.42
2023-04-30T04:53:51.614Z,16.23
2023-04-30T04:56:09.006Z,16.65
2023-04-30T04:58:25.942Z,17.58
2023-04-30T05:00:44.326Z,17.63
2023-04-30T05:03:02.050Z,18.05
2023-04-30T05:05:19.507Z,15.95
2023-04-30T05:07:36.839Z,18.05
2023-04-30T05:09:53.977Z,16.52
2023-04-30T05:12:11.489Z,16.23
2023-04-30T05:14:28.832Z,17.00
2023-04-30T05:16:47.207Z,18.15
2023-04-30T05:19:04.558Z,18.15
2023-04-30T05:21:24.140Z,17.17
2023-04-30T05:23:42.422Z,17.42
2023-04-30T05:25:59.762Z,17.08
2023-04-30T05:28:18.095Z,17.58
2023-04-30T05:30:37.810Z,16.65
2023-04-30T05:32:57.612Z,16.92
2023-04-30T05:35:15.898Z,17.50
2023-04-30T05:37:33.119Z,18.48
2023-04-30T05:39:51.339Z,17.30
2023-04-30T05:42:08.656Z,19.13
2023-04-30T05:44:25.965Z,18.48
2023-04-30T05:46:43.195Z,18.45
2023-04-30T05:49:01.530Z,18.95
2023-04-30T05:51:20.765Z,63.17
2023-04-30T05:53:38.997Z,45.83
2023-04-30T05:55:56.282Z,31.05
2023-04-30T05:58:13.728Z,22.75
2023-04-30T06:00:31.077Z,23.30
2023-04-30T06:02:48.961Z,25.45
2023-04-30T06:05:07.353Z,25.65
2023-04-30T06:07:24.757Z,27.13
2023-04-30T06:09:42.130Z,18.40
2023-04-30T06:11:59.552Z,17.25
2023-04-30T06:14:17.412Z,28.77
2023-04-30T06:16:34.947Z,24.33
2023-04-30T06:18:53.655Z,15.95
2023-04-30T06:21:11.097Z,14.32
2023-04-30T06:23:28.440Z,12.95
2023-04-30T06:25:45.454Z,11.45
2023-04-30T06:28:03.416Z,11.13
2023-04-30T06:30:23.571Z,11.15
2023-04-30T06:32:40.566Z,11.43
2023-04-30T06:34:57.928Z,10.48
2023-04-30T06:37:15.552Z,10.25
2023-04-30T06:39:32.881Z,10.07
2023-04-30T06:41:50.131Z,9.73
2023-04-30T06:44:08.501Z,9.75
2023-04-30T06:46:25.835Z,9.15
2023-04-30T06:48:43.134Z,9.40
2023-04-30T06:51:00.168Z,10.32
2023-04-30T06:53:17.571Z,9.07
2023-04-30T06:55:34.544Z,9.15
2023-04-30T06:57:51.893Z,9.00
2023-04-30T07:00:09.208Z,9.57
2023-04-30T07:02:27.527Z,9.25
2023-04-30T07:04:44.874Z,9.32
2023-04-30T07:07:02.117Z,8.20
2023-04-30T07:09:19.372Z,8.07
2023-04-30T07:11:36.290Z,7.55
2023-04-30T07:13:53.644Z,8.20
2023-04-30T07:16:11.066Z,8.38
2023-04-30T07:18:30.796Z,7.40
2023-04-30T07:20:48.105Z,7.40
2023-04-30T07:23:05.383Z,6.75
2023-04-30T07:25:22.596Z,7.07
2023-04-30T07:27:39.896Z,6.60
2023-04-30T07:29:57.341Z,7.10
2023-04-30T07:32:14.627Z,6.00
2023-04-30T07:34:31.923Z,6.75
2023-04-30T07:36:48.995Z,6.75
2023-04-30T07:39:06.290Z,6.55
2023-04-30T07:41:23.369Z,6.05
2023-04-30T07:43:40.603Z,5.70
2023-04-30T07:45:57.927Z,5.95
2023-04-30T07:48:14.978Z,7.10
2023-04-30T07:50:31.890Z,6.38
2023-04-30T07:52:48.794Z,6.60
2023-04-30T07:55:05.735Z,6.50
2023-04-30T07:57:22.609Z,5.88
2023-04-30T07:59:40.156Z,6.20
2023-04-30T08:01:57.503Z,6.50
2023-04-30T08:04:15.545Z,5.80
2023-04-30T08:06:36.416Z,6.47
2023-04-30T08:08:53.578Z,6.03
2023-04-30T08:11:10.593Z,6.20
2023-04-30T08:13:28.942Z,5.97
2023-04-30T08:15:45.883Z,5.45
2023-04-30T08:18:03.320Z,6.65
2023-04-30T08:20:20.743Z,5.95
2023-04-30T08:22:38.164Z,5.80
2023-04-30T08:24:57.627Z,6.28
2023-04-30T08:27:15.181Z,6.35
2023-04-30T08:29:37.582Z,5.53
2023-04-30T08:31:55.598Z,6.10
2023-04-30T08:34:12.920Z,6.00
2023-04-30T08:36:30.250Z,6.47
2023-04-30T08:38:47.620Z,6.15
2023-04-30T08:41:04.963Z,6.50
2023-04-30T08:43:22.667Z,6.55
2023-04-30T08:45:40.066Z,6.78
2023-04-30T08:47:57.152Z,5.57
2023-04-30T08:50:15.314Z,5.90
2023-04-30T08:52:32.638Z,5.90
2023-04-30T08:54:50.993Z,6.07
2023-04-30T08:57:08.318Z,6.85
2023-04-30T08:59:25.347Z,5.43
2023-04-30T09:01:42.303Z,5.80
2023-04-30T09:03:59.792Z,5.03
2023-04-30T09:06:17.431Z,5.85
2023-04-30T09:08:35.744Z,5.53
2023-04-30T09:10:52.752Z,5.45
2023-04-30T09:13:11.344Z,4.97
2023-04-30T09:15:28.513Z,4.50
2023-04-30T09:17:47.084Z,5.03
2023-04-30T09:20:06.772Z,4.80
2023-04-30T09:22:24.096Z,5.30
2023-04-30T09:24:40.996Z,4.90
2023-04-30T09:26:58.426Z,4.57
2023-04-30T09:29:15.718Z,4.20
2023-04-30T09:31:34.086Z,4.15
2023-04-30T09:33:51.429Z,4.35
2023-04-30T09:36:08.723Z,4.57
2023-04-30T09:38:26.046Z,3.60
2023-04-30T09:40:43.440Z,3.78
2023-04-30T09:43:00.416Z,3.95
2023-04-30T09:45:22.022Z,4.20
2023-04-30T09:47:39.012Z,3.80
2023-04-30T09:49:56.403Z,3.10
2023-04-30T09:52:14.183Z,3.70
2023-04-30T09:54:31.657Z,3.85
2023-04-30T09:59:22.212Z,3.17
2023-04-30T10:01:41.939Z,2.88
2023-04-30T10:04:00.859Z,2.80
2023-04-30T10:06:19.406Z,3.15
2023-04-30T10:08:36.839Z,2.90
2023-04-30T10:10:54.075Z,3.30
2023-04-30T10:13:11.315Z,2.72
2023-04-30T10:15:28.401Z,2.60
2023-04-30T10:17:45.309Z,2.65
2023-04-30T10:20:02.617Z,2.58
2023-04-30T10:22:19.779Z,2.70
2023-04-30T10:24:37.044Z,2.75
2023-04-30T10:26:54.367Z,3.08
2023-04-30T10:29:12.003Z,2.97
2023-04-30T10:31:29.325Z,2.72
2023-04-30T10:33:46.256Z,2.20
2023-04-30T10:36:03.526Z,2.60
2023-04-30T10:38:20.774Z,3.10
2023-04-30T10:40:38.028Z,2.92
2023-04-30T10:42:55.950Z,2.20
2023-04-30T10:45:13.213Z,2.75
2023-04-30T10:47:31.154Z,2.80
2023-04-30T10:49:48.542Z,2.28
2023-04-30T10:52:06.919Z,2.72
2023-04-30T10:54:24.319Z,2.60
2023-04-30T10:56:41.650Z,2.50
2023-04-30T10:58:58.576Z,2.33
2023-04-30T11:01:15.908Z,2.42
2023-04-30T11:03:33.266Z,2.25
2023-04-30T11:05:50.581Z,2.20
2023-04-30T11:08:07.874Z,2.25
2023-04-30T11:10:25.208Z,2.20
2023-04-30T11:12:42.566Z,2.13
2023-04-30T11:14:59.995Z,2.50
2023-04-30T11:17:18.222Z,2.28
2023-04-30T11:19:35.450Z,2.30
2023-04-30T11:21:52.819Z,3.08
2023-04-30T11:24:10.120Z,2.58
2023-04-30T11:26:27.377Z,2.33
2023-04-30T11:28:45.709Z,2.70
2023-04-30T11:31:03.670Z,2.72
2023-04-30T11:33:22.016Z,2.53
2023-04-30T11:35:39.337Z,2.47
2023-04-30T11:37:56.692Z,2.78
2023-04-30T11:40:15.244Z,2.40
2023-04-30T11:42:33.043Z,2.55
2023-04-30T11:44:50.335Z,2.00
2023-04-30T11:47:07.600Z,2.40
2023-04-30T11:49:24.976Z,2.55
2023-04-30T11:51:42.199Z,2.83
2023-04-30T11:53:59.430Z,2.30
2023-04-30T11:56:16.688Z,2.30
2023-04-30T11:58:34.377Z,2.33
2023-04-30T12:00:51.634Z,2.40
2023-04-30T12:03:08.978Z,2.70
2023-04-30T12:05:26.318Z,2.45
2023-04-30T12:07:43.631Z,2.08
2023-04-30T12:10:00.953Z,2.47
2023-04-30T12:12:18.778Z,2.47
2023-04-30T12:14:36.485Z,2.30
2023-04-30T12:16:53.633Z,2.33
2023-04-30T12:19:11.883Z,2.60
2023-04-30T12:21:28.814Z,2.55
2023-04-30T12:23:46.487Z,2.80
2023-04-30T12:26:04.785Z,2.40
2023-04-30T12:28:22.427Z,2.78
2023-04-30T12:30:39.713Z,2.80
2023-04-30T12:32:57.075Z,2.65
2023-04-30T12:35:14.140Z,2.80
2023-04-30T12:37:31.471Z,2.20
2023-04-30T12:39:48.410Z,2.60
2023-04-30T12:42:05.689Z,2.40
2023-04-30T12:44:24.003Z,2.60
2023-04-30T12:46:41.059Z,2.50
2023-04-30T12:48:58.520Z,2.63
2023-04-30T12:51:15.787Z,2.28
2023-04-30T12:53:32.740Z,2.25
2023-04-30T12:55:49.648Z,2.60
2023-04-30T12:58:06.965Z,2.20
2023-04-30T13:00:24.626Z,2.50
2023-04-30T13:02:41.906Z,2.00
2023-04-30T13:04:59.362Z,2.50
2023-04-30T13:07:16.629Z,2.45
2023-04-30T13:09:33.920Z,2.22
2023-04-30T13:11:51.179Z,2.63
2023-04-30T13:14:08.047Z,2.45
2023-04-30T13:16:25.864Z,2.60
2023-04-30T13:18:43.583Z,1.95
2023-04-30T13:21:00.909Z,2.50
2023-04-30T13:23:18.828Z,2.28
2023-04-30T13:25:35.761Z,2.65
2023-04-30T13:27:53.027Z,2.22
2023-04-30T13:30:10.356Z,1.95
2023-04-30T13:32:27.766Z,2.05
2023-04-30T13:34:45.055Z,2.40
2023-04-30T13:37:02.289Z,2.60
2023-04-30T13:39:19.661Z,2.55
2023-04-30T13:41:36.956Z,2.20
2023-04-30T13:43:54.145Z,2.22
2023-04-30T13:46:11.396Z,1.85
2023-04-30T13:48:28.338Z,2.10
2023-04-30T13:50:45.649Z,2.03
2023-04-30T13:53:02.935Z,1.85
2023-04-30T13:55:20.198Z,2.10
2023-04-30T13:57:37.559Z,1.95
2023-04-30T13:59:55.004Z,1.75
2023-04-30T14:02:13.114Z,1.80
2023-04-30T14:04:30.385Z,1.88
2023-04-30T14:06:47.828Z,1.60
2023-04-30T14:09:05.152Z,1.70
2023-04-30T14:11:22.458Z,1.75
2023-04-30T14:13:39.346Z,1.90
2023-04-30T14:15:56.705Z,1.88
2023-04-30T14:18:15.152Z,1.80
2023-04-30T14:20:32.189Z,1.95
2023-04-30T14:22:49.472Z,1.98
2023-04-30T14:25:06.396Z,1.70
2023-04-30T14:27:23.477Z,2.05
2023-04-30T14:29:40.767Z,2.08
2023-04-30T14:31:58.159Z,1.90
2023-04-30T14:34:15.951Z,1.90
2023-04-30T14:36:33.291Z,1.80
2023-04-30T14:38:50.580Z,3.00
2023-04-30T14:41:08.520Z,1.80
2023-04-30T14:43:25.465Z,1.75
2023-04-30T14:45:42.410Z,1.80
2023-04-30T14:47:59.718Z,1.77
2023-04-30T14:50:16.955Z,1.83
2023-04-30T14:52:34.047Z,1.90
2023-04-30T14:54:51.415Z,1.63
2023-04-30T14:57:09.695Z,1.70
2023-04-30T14:59:26.985Z,1.88
2023-04-30T15:01:44.379Z,1.65
2023-04-30T15:04:01.502Z,1.90
2023-04-30T15:06:18.468Z,1.70
2023-04-30T15:08:37.961Z,1.70
2023-04-30T15:10:56.299Z,1.70
2023-04-30T15:13:13.211Z,1.70
2023-04-30T15:15:30.311Z,1.77
2023-04-30T15:17:47.292Z,1.70
2023-04-30T15:20:04.741Z,1.85
2023-04-30T15:22:21.949Z,1.80
2023-04-30T15:24:38.882Z,1.85
2023-04-30T15:26:56.194Z,1.73
2023-04-30T15:29:13.506Z,1.70
2023-04-30T15:31:31.847Z,1.45
2023-04-30T15:33:50.201Z,1.77
2023-04-30T15:36:07.114Z,1.40
2023-04-30T15:38:24.446Z,1.75
2023-04-30T15:40:41.717Z,1.67
2023-04-30T15:42:59.415Z,1.83
2023-04-30T15:45:17.342Z,1.55
2023-04-30T15:47:34.659Z,1.70
2023-04-30T15:49:51.724Z,1.40
2023-04-30T15:52:09.050Z,1.30
2023-04-30T15:54:26.325Z,1.48
2023-04-30T15:56:43.989Z,1.60
2023-04-30T15:59:00.884Z,1.50
2023-04-30T16:01:18.170Z,1.58
2023-04-30T16:03:36.155Z,1.58
2023-04-30T16:05:54.248Z,1.40
2023-04-30T16:08:11.487Z,1.48
2023-04-30T16:10:28.765Z,1.50
2023-04-30T16:12:46.148Z,1.50
2023-04-30T16:15:03.059Z,1.70
2023-04-30T16:17:20.382Z,1.65
2023-04-30T16:19:38.056Z,1.38
2023-04-30T16:21:55.001Z,1.48
2023-04-30T16:24:13.231Z,1.30
2023-04-30T16:26:31.183Z,1.50
2023-04-30T16:28:48.493Z,1.42
2023-04-30T16:31:06.478Z,1.20
2023-04-30T16:33:24.212Z,1.20
2023-04-30T16:35:41.533Z,1.30
2023-04-30T16:37:58.451Z,1.40
2023-04-30T16:40:15.379Z,1.50
2023-04-30T16:42:32.707Z,1.10
2023-04-30T16:44:49.996Z,1.27
2023-04-30T16:47:07.241Z,1.50
2023-04-30T16:49:25.118Z,1.40
2023-04-30T16:51:42.348Z,1.40
2023-04-30T16:54:00.670Z,1.30
2023-04-30T16:56:17.884Z,1.58
2023-04-30T16:58:35.158Z,1.50
2023-04-30T17:00:52.425Z,1.40
2023-04-30T17:03:09.847Z,1.30
2023-04-30T17:05:28.183Z,1.40
2023-04-30T17:07:48.784Z,1.33
2023-04-30T17:10:06.205Z,1.52
2023-04-30T17:12:23.073Z,1.70
2023-04-30T17:14:39.964Z,1.95
2023-04-30T17:16:56.946Z,1.65
2023-04-30T17:19:13.856Z,1.65
2023-04-30T17:21:31.504Z,1.40
2023-04-30T17:23:49.753Z,1.67
2023-04-30T17:26:06.986Z,1.38
2023-04-30T17:28:24.236Z,1.40
2023-04-30T17:30:41.538Z,1.30
2023-04-30T17:32:58.507Z,1.35
2023-04-30T17:35:16.878Z,1.25
2023-04-30T17:37:33.754Z,1.20
2023-04-30T17:39:51.402Z,1.13
2023-04-30T17:42:09.082Z,1.27
2023-04-30T17:44:27.279Z,1.20
2023-04-30T17:46:44.997Z,1.10
2023-04-30T17:49:02.100Z,1.10
2023-04-30T17:51:19.396Z,1.20
2023-04-30T17:53:36.628Z,1.02
2023-04-30T17:55:53.916Z,0.98
2023-04-30T17:58:11.154Z,1.50
2023-04-30T18:00:28.080Z,1.25
2023-04-30T18:02:45.428Z,1.15
2023-04-30T18:05:03.744Z,1.30
2023-04-30T18:07:21.466Z,1.30
2023-04-30T18:09:38.723Z,1.40
2023-04-30T18:11:56.379Z,1.30
2023-04-30T18:14:14.568Z,1.60
2023-04-30T18:16:31.503Z,1.65
2023-04-30T18:18:48.760Z,1.33
2023-04-30T18:21:07.056Z,1.40
2023-04-30T18:23:24.393Z,1.30
2023-04-30T18:25:41.341Z,1.40
2023-04-30T18:27:58.672Z,1.60
2023-04-30T18:30:16.403Z,1.52
2023-04-30T18:32:34.428Z,2.05
2023-04-30T18:34:51.481Z,1.83
2023-04-30T18:37:08.761Z,1.58
2023-04-30T18:39:26.022Z,1.70
2023-04-30T18:41:43.388Z,2.00
2023-04-30T18:44:00.618Z,1.98
2023-04-30T18:46:17.947Z,1.98
2023-04-30T18:48:35.341Z,2.10
2023-04-30T18:50:52.281Z,2.25
2023-04-30T18:53:09.572Z,2.17
2023-04-30T18:55:26.822Z,1.90
2023-04-30T18:57:43.736Z,2.05
2023-04-30T19:00:01.101Z,2.05
2023-04-30T19:02:18.461Z,1.80
2023-04-30T19:04:35.808Z,1.90
2023-04-30T19:06:53.183Z,2.50
2023-04-30T19:09:10.530Z,4.10
2023-04-30T19:11:27.737Z,3.50
2023-04-30T19:13:45.032Z,3.40
2023-04-30T19:16:02.333Z,3.40
2023-04-30T19:18:19.590Z,3.20
2023-04-30T19:20:37.516Z,3.10
2023-04-30T19:22:54.879Z,3.50
2023-04-30T19:25:14.880Z,4.32
2023-04-30T19:27:33.174Z,4.18
2023-04-30T19:29:50.474Z,4.65
2023-04-30T19:32:07.843Z,4.30
2023-04-30T19:34:25.126Z,4.32
2023-04-30T19:36:42.848Z,4.15
2023-04-30T19:39:00.081Z,4.50
2023-04-30T19:41:19.722Z,4.20
2023-04-30T19:43:37.060Z,3.80
2023-04-30T19:45:54.449Z,3.60
2023-04-30T19:48:11.523Z,3.80
2023-04-30T19:50:28.473Z,4.10
2023-04-30T19:52:45.827Z,3.65
2023-04-30T19:55:03.149Z,3.50
2023-04-30T19:57:20.437Z,4.03
2023-04-30T19:59:37.770Z,4.53
2023-04-30T20:01:56.475Z,4.70
2023-04-30T20:04:13.498Z,5.70
2023-04-30T20:06:30.894Z,5.90
2023-04-30T20:08:48.197Z,6.10
2023-04-30T20:11:05.518Z,4.72
2023-04-30T20:13:22.909Z,3.80
2023-04-30T20:15:40.292Z,4.10
2023-04-30T20:17:57.725Z,3.80
2023-04-30T20:20:14.964Z,3.15
2023-04-30T20:22:31.916Z,3.03
2023-04-30T20:24:48.829Z,3.30
2023-04-30T20:27:06.158Z,3.35
2023-04-30T20:29:23.457Z,3.40
2023-04-30T20:31:41.912Z,3.25
2023-04-30T20:34:00.258Z,3.42
2023-04-30T20:36:17.545Z,3.80
2023-04-30T20:38:35.857Z,4.05
2023-04-30T20:40:53.212Z,3.85
2023-04-30T20:43:10.439Z,4.38
2023-04-30T20:45:27.931Z,5.13
2023-04-30T20:47:45.324Z,5.55
2023-04-30T20:50:02.279Z,5.90
2023-04-30T20:52:19.597Z,6.03
2023-04-30T20:54:36.921Z,6.15
2023-04-30T20:56:53.845Z,5.25
2023-04-30T20:59:11.752Z,5.10
2023-04-30T21:01:29.054Z,5.45
2023-04-30T21:03:46.465Z,5.10
2023-04-30T21:06:04.471Z,5.15
2023-04-30T21:08:21.853Z,5.13
2023-04-30T21:10:39.574Z,4.40
2023-04-30T21:12:56.878Z,4.25
2023-04-30T21:15:13.894Z,4.07
2023-04-30T21:17:30.879Z,4.47
2023-04-30T21:19:48.230Z,4.15
2023-04-30T21:22:05.271Z,4.47
2023-04-30T21:24:22.517Z,7.25
2023-04-30T21:26:39.776Z,7.30
2023-04-30T21:28:56.938Z,5.60
2023-04-30T21:31:14.210Z,4.30
2023-04-30T21:33:31.257Z,3.60
2023-04-30T21:35:50.940Z,3.25
2023-04-30T21:38:08.222Z,3.25
2023-04-30T21:40:25.256Z,3.25
2023-04-30T21:42:42.507Z,3.38
2023-04-30T21:44:59.779Z,3.88
2023-04-30T21:47:18.097Z,4.80
2023-04-30T21:49:35.463Z,5.65
2023-04-30T21:51:52.723Z,5.10
2023-04-30T21:54:09.970Z,5.70
2023-04-30T21:56:27.252Z,6.20
2023-04-30T21:58:44.477Z,4.88
2023-04-30T22:01:02.749Z,5.22
2023-04-30T22:03:20.187Z,4.88
2023-04-30T22:05:37.311Z,4.85
2023-04-30T22:07:54.613Z,4.65
2023-04-30T22:10:12.227Z,4.50
2023-04-30T22:12:29.522Z,5.60
2023-04-30T22:14:46.819Z,6.35
2023-04-30T22:17:04.058Z,6.40
2023-04-30T22:19:22.614Z,5.75
2023-04-30T22:21:39.980Z,6.10
2023-04-30T22:23:57.307Z,6.40
2023-04-30T22:26:14.604Z,7.03
2023-04-30T22:28:31.547Z,6.47
2023-04-30T22:30:48.780Z,6.45
2023-04-30T22:33:06.074Z,6.32
2023-04-30T22:35:23.042Z,5.82
2023-04-30T22:37:40.692Z,6.53
2023-04-30T22:39:58.393Z,6.63
2023-04-30T22:42:16.136Z,6.85
2023-04-30T22:44:33.424Z,6.63
2023-04-30T22:46:50.783Z,6.50
2023-04-30T22:51:26.206Z,6.00
2023-04-30T22:53:43.494Z,6.53
2023-04-30T22:56:00.696Z,6.28
2023-04-30T22:58:18.588Z,6.18
2023-04-30T23:00:35.540Z,6.72
2023-04-30T23:02:52.818Z,7.70
2023-04-30T23:05:09.796Z,7.10
2023-04-30T23:07:28.082Z,8.10
2023-04-30T23:09:45.160Z,9.23
2023-04-30T23:12:02.452Z,8.82
2023-04-30T23:14:19.821Z,8.00
2023-04-30T23:16:37.204Z,8.45
2023-04-30T23:18:54.469Z,8.68
2023-04-30T23:21:11.697Z,7.95
2023-04-30T23:23:29.480Z,8.43
2023-04-30T23:25:46.424Z,7.75
2023-04-30T23:28:03.686Z,8.32
2023-04-30T23:30:20.915Z,9.30
2023-04-30T23:32:38.285Z,8.60
2023-04-30T23:34:57.830Z,9.15
2023-04-30T23:37:15.116Z,9.30
2023-04-30T23:39:32.431Z,9.25
2023-04-30T23:41:49.721Z,9.05
2023-04-30T23:44:06.834Z,8.35
2023-04-30T23:46:24.516Z,8.27
2023-04-30T23:48:41.479Z,8.77
2023-04-30T23:50:58.788Z,9.45
2023-04-30T23:53:16.208Z,8.52
2023-04-30T23:55:33.647Z,7.20
2023-04-30T23:57:50.886Z,6.30
